OINR  Ramsar  Airport

Iran

Add Bookmark
ICAO OINR
IATA RZR
Type Airport
Status Operational
Latitude
36° 54' 35" N
36.909901
Longitude
50° 40' 46" E
50.679600
Local (DST + 5) UTC (GMT + 4)
Feb 11, 2016 05:47 Feb 11, 2016 02:17
Sunrise-Sunset Local UTC
Begin Civil Twilight 06:32 03:02
Sunrise 06:59 03:29
Sunset 05:43 14:13
End Civil Twilight 06:10 14:40
VFR
VFR
MVFR
MVFR
IFR
IFR
LIFR
LIFR
Unknown
Unavailable

Current Weather

METAR Observed VFR
OINR 110100Z 24004KT 9999 FEW027 03/00 Q1026 Thu, Feb 11, 2016 @ 01:00 UTC
(1 Hour, 17 Minutes ago)
Visual Flight Rules
Wind Visibility Clouds Conditions
240° at 4 knots (7 kph) 10 km or more
  • Few at 2,700 ft AGL
  • No significant weather
Temperatures Readings Precipitation
Current Temp
3°C
37°F
Dewpoint
0°C
32°F
Humidity 81%
Altimeter 30.3" Hg
Sea Level Pressure 1,026 mb
None Recorded

Additional weather within a 92.6km radius of OINR

Map ICAO Location
OINN 75km E/SE (111°)
VFR
VFR
MVFR
MVFR
IFR
IFR
LIFR
LIFR
Unknown
Unavailable
-
-

CheckWX.com is intended as a tool to help pilots better visualize weather data. It is not intended as a substitute for an official weather briefing obtained from a Flight Service Station. CheckWX.com does not meet the FAA requirements for an official pre-flight weather briefing. Therefore, it's important that pilots still call and obtain an official FSS pre-flight weather briefing.

© 2007-2016 CheckWX.com
02:17:23 UTC